DIAP/ABJ METAR and TAF weather

Enter ICAO airport designator
Station Type Date Time Source
DIAP METAR 2020/07/10 17:30 UTC NOAA

DIAP 101730Z 24010KT 9999 FEW012 26/24 Q1011 NOSIG


Station Type Date Time Source
DIAP Decoded METAR 2020/07/10 17:30 UTC NOAA

Abidjan, Cote d'Ivoire (DIAP) 05-15N 003-56W 8M
Jul 10, 2020 - 01:30 PM EDT / 2020.07.10 1730 UTC
Wind: from the WSW (240 degrees) at 12 MPH (10 KT):0
Visibility: greater than 7 mile(s):0
Sky conditions: mostly clear
Temperature: 78 F (26 C)
Dew Point: 75 F (24 C)
Relative Humidity: 88%
Pressure (altimeter): 29.85 in. Hg (1011 hPa)
ob: DIAP 101730Z 24010KT 9999 FEW012 26/24 Q1011 NOSIG
cycle: 17

Station Type Date Time Source
DIAP TAF 2020/07/10 18:57 UTC NOAA

TAF TAF DIAP 101751Z 1018/1124 23009KT 9999 SCT012 PROB40 1020/1023 BKN010 BKN040 PROB30
TEMPO 1023/1104 4000 RA BKN010 BKN030
TEMPO 1104/1109 4000 RA BKN010 BKN030 PROB30
TEMPO 1109/1115 4000 TSRA BKN010 FEW020CB BKN030 PROB30
TEMPO 1115/1119 4000 RA BKN010 BKN030

Example: see airport list